SKMDSKAR

Guest
Details From SKMD - Medellin Olaya Herrera
To SKAR - EL EDEN
Flight Number -
Tags generated
Created
Modified
Stats Distance 107 nm / 198 km
Max Altitude 8,800 ft / 2,682 m
Waypoints 3
Social Downloads 0
Likes 0
Share VATSIM

Download

Looking for another format? Having issues loading an existing format? Contact us
Advertisement - Login to hide

Notes

Basic altitude profile: - Ascent Rate: 500ft/min - Ascent Speed: 70kts - Cruise Altitude: 10500ft - Cruise Speed: 100kts - Descent Rate: 500ft/min - Descent Speed: 70kts Options: - Use NATs: yes - Use PACOTS: yes - Use low airways: yes - Use high airways: yes

Route

SKMD MATRO SKAR

ID Type Via Altitude Latitude Longitude Leg Dist Tot Dist Heading (true) Name
O SKMD APT - 0 ft / 0 m 6.21996˚ -75.59052˚ - 0 nm - Medellin Olaya Herrera
MATRO FIX - 8,800 ft / 2,682 m 5.14111˚ -75.71056˚ 65 nm 65 nm 186° / 186° -
O SKAR APT - 0 ft / 0 m 4.45278˚ -75.76649˚ 41 nm 106 nm 185° / 185° EL EDEN

Altitude Profile

Advertisement - Login to hide

SKMD

Details ICAO SKMD (EOH)
Name Medellin Olaya Herrera
Region Colombia
Timezone America/Bogota (UTC-5.0)
Stats Elevation 4,940 ft / 1,506 m (AMSL)
Location 6.219958° -75.590519°
Runways 1
Magnetic Variation 6.528° W

METAR

SKMD 121100Z 00000KT 9999 7000N SCT025 SCT100 19/17 A3017 RMK HZ

Decode

TAF

Not found

Departure Runways

ID Width Length Bearing (true) Bearing (mag) Surface Threshold Offset Overrun Length
02 148 ft / 45 m 8,324 ft / 2,537 m 10.66° 17.19° Asphalt 1,316 ft / 401 m 0 ft / 0 m
20 148 ft / 45 m 8,324 ft / 2,537 m 190.66° 197.19° Asphalt 1,012 ft / 308 m 0 ft / 0 m

SKAR

Details ICAO SKAR (AXM)
Name EL EDEN
Region Colombia
Timezone America/Bogota (UTC-5.0)
Stats Elevation 3,990 ft / 1,216 m (AMSL)
Location 4.452775° -75.766487°
Runways 1
Magnetic Variation 6.141° W

METAR

SKAR 121100Z 00000KT 0800 FG OVC006 18/18 A3010 RMK AD BLW MNM MET

Decode

TAF

Not found

Destination Runways

ID Width Length Bearing (true) Bearing (mag) Surface Threshold Offset Overrun Length
02 118 ft / 36 m 7,031 ft / 2,143 m 13.15° 19.29° Asphalt 0 ft / 0 m 0 ft / 0 m
20 118 ft / 36 m 7,031 ft / 2,143 m 193.15° 199.29° Asphalt 0 ft / 0 m 0 ft / 0 m

Popular Alternatives